createdAt,value
2022-11-24T00:01:26.163Z,3.15
2022-11-24T00:04:04.597Z,3.18
2022-11-24T00:06:35.635Z,3.20
2022-11-24T00:09:05.557Z,3.22
2022-11-24T00:11:40.094Z,3.23
2022-11-24T00:14:10.603Z,3.26
2022-11-24T00:16:39.344Z,3.27
2022-11-24T00:19:09.580Z,3.28
2022-11-24T00:21:38.795Z,3.27
2022-11-24T00:24:07.182Z,3.28
2022-11-24T00:26:37.912Z,3.28
2022-11-24T00:29:08.085Z,3.28
2022-11-24T00:31:39.800Z,3.28
2022-11-24T00:34:12.414Z,3.31
2022-11-24T00:36:41.775Z,3.33
2022-11-24T00:39:15.556Z,3.34
2022-11-24T00:41:45.040Z,3.35
2022-11-24T00:44:13.672Z,3.37
2022-11-24T00:46:43.115Z,3.37
2022-11-24T00:49:12.067Z,3.32
2022-11-24T00:51:40.243Z,3.36
2022-11-24T00:54:09.746Z,3.35
2022-11-24T00:56:38.125Z,3.34
2022-11-24T00:59:06.605Z,3.33
2022-11-24T01:01:34.919Z,3.33
2022-11-24T01:04:04.077Z,3.32
2022-11-24T01:06:33.002Z,3.32
2022-11-24T01:09:02.587Z,3.32
2022-11-24T01:11:55.166Z,3.32
2022-11-24T01:14:25.622Z,3.32
2022-11-24T01:16:54.943Z,3.31
2022-11-24T01:19:23.949Z,3.31
2022-11-24T01:21:52.527Z,3.32
2022-11-24T01:24:21.217Z,3.32
2022-11-24T01:26:49.599Z,3.31
2022-11-24T01:29:17.915Z,3.30
2022-11-24T01:31:46.259Z,3.29
2022-11-24T01:34:14.421Z,3.28
2022-11-24T01:36:43.007Z,3.29
2022-11-24T01:39:11.396Z,3.30
2022-11-24T01:41:39.973Z,3.29
2022-11-24T01:44:23.134Z,3.27
2022-11-24T01:46:57.727Z,3.25
2022-11-24T01:49:41.776Z,3.23
2022-11-24T01:52:19.155Z,3.21
2022-11-24T01:54:55.407Z,3.18
2022-11-24T01:57:30.222Z,3.15
2022-11-24T02:00:11.913Z,3.13
2022-11-24T02:02:45.399Z,3.11
2022-11-24T02:05:22.115Z,3.09
2022-11-24T02:07:52.856Z,3.07
2022-11-24T02:10:21.944Z,3.03
2022-11-24T02:12:53.723Z,3.04
2022-11-24T02:15:23.003Z,3.02
2022-11-24T02:17:51.392Z,3.03
2022-11-24T02:20:20.063Z,3.02
2022-11-24T02:23:01.850Z,3.01
2022-11-24T02:25:49.585Z,3.00
2022-11-24T02:28:22.185Z,3.00
2022-11-24T02:30:51.672Z,3.00
2022-11-24T02:33:22.510Z,2.97
2022-11-24T02:35:51.194Z,2.96
2022-11-24T02:38:19.476Z,2.94
2022-11-24T02:40:49.801Z,2.87
2022-11-24T02:43:22.783Z,2.81
2022-11-24T02:45:51.364Z,2.76
2022-11-24T02:48:19.866Z,2.72
2022-11-24T02:50:48.334Z,2.68
2022-11-24T02:53:16.607Z,2.61
2022-11-24T02:55:45.095Z,2.58
2022-11-24T02:58:15.096Z,2.59
2022-11-24T03:00:43.596Z,2.60
2022-11-24T03:03:12.163Z,2.60
2022-11-24T03:05:41.069Z,2.61
2022-11-24T03:08:09.949Z,2.61
2022-11-24T03:10:38.370Z,2.61
2022-11-24T03:13:06.573Z,2.61
2022-11-24T03:15:35.149Z,2.60
2022-11-24T03:18:03.985Z,2.59
2022-11-24T03:20:32.655Z,2.61
2022-11-24T03:23:00.841Z,2.60
2022-11-24T03:25:30.043Z,2.61
2022-11-24T03:27:58.834Z,2.60
2022-11-24T03:30:28.049Z,2.62
2022-11-24T03:32:56.505Z,2.63
2022-11-24T03:35:24.717Z,2.64
2022-11-24T03:37:52.956Z,2.66
2022-11-24T03:40:21.223Z,2.71
2022-11-24T03:42:49.823Z,2.73
2022-11-24T03:48:08.651Z,2.74
2022-11-24T03:50:36.867Z,2.76
2022-11-24T03:53:05.154Z,2.77
2022-11-24T03:55:33.736Z,2.76
2022-11-24T03:58:02.761Z,2.75
2022-11-24T04:00:32.157Z,2.75
2022-11-24T04:03:01.308Z,2.75
2022-11-24T04:05:29.797Z,2.76
2022-11-24T04:07:58.391Z,2.77
2022-11-24T04:10:26.969Z,2.81
2022-11-24T04:12:55.556Z,2.84
2022-11-24T04:15:23.780Z,2.85
2022-11-24T04:17:55.717Z,2.86
2022-11-24T04:20:24.782Z,2.87
2022-11-24T04:22:53.264Z,2.86
2022-11-24T04:25:23.048Z,2.86
2022-11-24T04:27:55.059Z,2.86
2022-11-24T04:30:25.634Z,2.86
2022-11-24T04:32:54.779Z,2.84
2022-11-24T04:35:23.427Z,2.83
2022-11-24T04:37:52.929Z,2.85
2022-11-24T04:40:21.727Z,2.88
2022-11-24T04:42:57.365Z,2.95
2022-11-24T04:45:25.895Z,2.97
2022-11-24T04:47:54.380Z,2.99
2022-11-24T04:50:23.288Z,3.02
2022-11-24T04:52:52.780Z,3.04
2022-11-24T04:55:21.249Z,3.03
2022-11-24T04:57:49.626Z,3.03
2022-11-24T05:00:20.299Z,3.02
2022-11-24T05:02:48.752Z,3.01
2022-11-24T05:05:17.637Z,2.96
2022-11-24T05:07:46.050Z,3.00
2022-11-24T05:10:33.491Z,3.03
2022-11-24T05:13:10.314Z,3.06
2022-11-24T05:15:40.647Z,3.07
2022-11-24T05:18:12.690Z,3.07
2022-11-24T05:20:41.703Z,3.04
2022-11-24T05:23:10.389Z,3.01
2022-11-24T05:25:40.521Z,2.98
2022-11-24T05:28:12.685Z,2.97
2022-11-24T05:30:42.281Z,2.96
2022-11-24T05:33:19.177Z,2.95
2022-11-24T05:35:51.982Z,2.97
2022-11-24T05:38:22.889Z,2.98
2022-11-24T05:40:51.669Z,3.01
2022-11-24T05:43:20.159Z,3.03
2022-11-24T05:45:50.167Z,3.05
2022-11-24T05:48:19.370Z,3.08
2022-11-24T05:50:55.230Z,3.10
2022-11-24T05:53:24.560Z,3.12
2022-11-24T05:55:53.716Z,3.14
2022-11-24T05:58:23.173Z,3.17
2022-11-24T06:00:52.210Z,3.19
2022-11-24T06:03:20.757Z,3.14
2022-11-24T06:05:49.654Z,3.19
2022-11-24T06:08:18.493Z,3.19
2022-11-24T06:10:47.784Z,3.20
2022-11-24T06:13:17.473Z,3.17
2022-11-24T06:15:46.907Z,3.08
2022-11-24T06:18:15.413Z,2.98
2022-11-24T06:21:02.805Z,2.84
2022-11-24T06:23:34.156Z,2.75
2022-11-24T06:26:02.976Z,2.57
2022-11-24T06:28:32.446Z,2.51
2022-11-24T06:31:02.973Z,2.45
2022-11-24T06:33:36.749Z,2.40
2022-11-24T06:36:08.666Z,2.36
2022-11-24T06:38:37.846Z,2.32
2022-11-24T06:41:15.414Z,2.32
2022-11-24T06:43:45.151Z,2.37
2022-11-24T06:46:15.584Z,2.45
2022-11-24T06:48:44.358Z,2.54
2022-11-24T06:51:13.914Z,2.62
2022-11-24T06:53:42.657Z,2.73
2022-11-24T06:56:16.738Z,2.82
2022-11-24T06:58:48.245Z,2.88
2022-11-24T07:01:23.873Z,2.93
2022-11-24T07:03:54.490Z,2.98
2022-11-24T07:06:25.754Z,3.02
2022-11-24T07:08:54.516Z,3.06
2022-11-24T07:11:24.599Z,3.08
2022-11-24T07:13:59.489Z,3.12
2022-11-24T07:16:29.796Z,3.16
2022-11-24T07:19:01.107Z,3.22
2022-11-24T07:21:31.275Z,3.29
2022-11-24T07:24:00.469Z,3.36
2022-11-24T07:26:29.526Z,3.44
2022-11-24T07:28:58.462Z,3.52
2022-11-24T07:31:27.242Z,3.58
2022-11-24T07:33:56.881Z,3.63
2022-11-24T07:36:27.645Z,3.69
2022-11-24T07:38:58.089Z,3.73
2022-11-24T07:41:28.565Z,3.78
2022-11-24T07:43:57.642Z,3.83
2022-11-24T07:46:26.596Z,3.87
2022-11-24T07:48:55.359Z,3.89
2022-11-24T07:51:24.531Z,3.91
2022-11-24T07:53:53.710Z,3.95
2022-11-24T07:56:22.516Z,3.99
2022-11-24T07:58:53.160Z,4.02
2022-11-24T08:01:22.471Z,4.04
2022-11-24T08:03:52.043Z,4.04
2022-11-24T08:06:27.187Z,4.07
2022-11-24T08:08:58.243Z,4.12
2022-11-24T08:11:27.631Z,4.17
2022-11-24T08:13:56.551Z,4.22
2022-11-24T08:16:25.464Z,4.26
2022-11-24T08:18:55.683Z,4.31
2022-11-24T08:21:24.932Z,4.31
2022-11-24T08:23:57.297Z,4.25
2022-11-24T08:26:26.313Z,4.30
2022-11-24T08:28:58.413Z,4.33
2022-11-24T08:31:33.813Z,4.35
2022-11-24T08:34:05.471Z,4.39
2022-11-24T08:36:36.382Z,4.43
2022-11-24T08:39:04.989Z,4.45
2022-11-24T08:41:33.566Z,4.45
2022-11-24T08:44:01.942Z,4.49
2022-11-24T08:46:30.622Z,4.54
2022-11-24T08:48:59.429Z,4.59
2022-11-24T08:51:28.321Z,4.64
2022-11-24T08:53:59.171Z,4.69
2022-11-24T08:56:29.784Z,4.74
2022-11-24T08:58:58.884Z,4.80
2022-11-24T09:01:28.147Z,4.85
2022-11-24T09:03:56.978Z,4.90
2022-11-24T09:06:27.998Z,4.92
2022-11-24T09:08:57.305Z,4.93
2022-11-24T09:11:27.641Z,4.94
2022-11-24T09:13:56.147Z,4.94
2022-11-24T09:16:27.964Z,4.92
2022-11-24T09:19:01.676Z,4.91
2022-11-24T09:21:34.363Z,4.93
2022-11-24T09:24:03.052Z,4.98
2022-11-24T09:26:34.904Z,5.06
2022-11-24T09:29:05.564Z,5.16
2022-11-24T09:31:36.591Z,5.24
2022-11-24T09:34:12.769Z,5.32
2022-11-24T09:36:41.844Z,5.39
2022-11-24T09:39:11.133Z,5.47
2022-11-24T09:42:06.860Z,5.52
2022-11-24T09:44:52.841Z,5.55
2022-11-24T09:47:47.337Z,5.57
2022-11-24T09:50:22.785Z,5.61
2022-11-24T09:52:54.553Z,5.67
2022-11-24T09:55:31.833Z,5.67
2022-11-24T09:58:39.102Z,5.66
2022-11-24T10:01:19.936Z,5.63
2022-11-24T10:03:53.081Z,5.61
2022-11-24T10:06:31.551Z,5.57
2022-11-24T10:09:34.186Z,5.54
2022-11-24T10:12:19.238Z,5.59
2022-11-24T10:18:44.774Z,5.68
2022-11-24T10:21:45.616Z,5.73
2022-11-24T10:24:41.243Z,5.80
2022-11-24T10:27:14.666Z,5.81
2022-11-24T10:29:45.256Z,5.82
2022-11-24T10:32:21.040Z,5.78
2022-11-24T10:34:54.374Z,5.78
2022-11-24T10:37:32.240Z,5.90
2022-11-24T10:40:05.180Z,5.95
2022-11-24T10:42:39.099Z,6.01
2022-11-24T10:45:15.989Z,6.08
2022-11-24T10:47:47.370Z,6.07
2022-11-24T10:50:24.673Z,6.16
2022-11-24T10:53:19.326Z,6.19
2022-11-24T10:55:57.542Z,6.21
2022-11-24T10:58:40.766Z,6.16
2022-11-24T11:01:15.452Z,6.12
2022-11-24T11:03:51.148Z,6.09
2022-11-24T11:06:27.578Z,6.10
2022-11-24T11:09:08.389Z,6.11
2022-11-24T11:11:40.206Z,6.13
2022-11-24T11:14:12.521Z,6.15
2022-11-24T11:16:46.370Z,6.15
2022-11-24T11:20:00.089Z,6.12
2022-11-24T11:22:36.210Z,6.12
2022-11-24T11:25:18.935Z,6.12
2022-11-24T11:27:48.647Z,6.11
2022-11-24T11:36:14.214Z,6.16
2022-11-24T11:38:44.534Z,6.19
2022-11-24T11:41:35.138Z,6.22
2022-11-24T11:44:19.176Z,6.24
2022-11-24T11:46:47.809Z,6.28
2022-11-24T11:49:16.967Z,6.32
2022-11-24T11:52:13.619Z,6.36
2022-11-24T11:54:47.329Z,6.40
2022-11-24T11:57:39.134Z,6.42
2022-11-24T12:00:19.272Z,6.43
2022-11-24T12:03:15.833Z,6.44
2022-11-24T12:06:08.976Z,6.45
2022-11-24T12:09:32.937Z,6.46
2022-11-24T12:12:32.438Z,6.48
2022-11-24T12:15:16.100Z,6.50
2022-11-24T12:17:55.238Z,6.54
2022-11-24T12:20:55.969Z,6.56
2022-11-24T12:23:43.297Z,6.50
2022-11-24T12:26:38.393Z,6.60
2022-11-24T12:29:47.950Z,6.64
2022-11-24T12:32:35.080Z,6.67
2022-11-24T12:35:18.300Z,6.69
2022-11-24T12:37:53.756Z,6.72
2022-11-24T12:40:22.209Z,6.76
2022-11-24T12:42:57.977Z,6.79
2022-11-24T12:45:40.298Z,6.74
2022-11-24T12:48:21.065Z,6.74
2022-11-24T12:50:52.130Z,6.75
2022-11-24T12:53:34.185Z,6.76
2022-11-24T12:56:10.336Z,6.78
2022-11-24T12:58:51.007Z,6.80
2022-11-24T13:01:31.117Z,6.82
2022-11-24T13:04:30.974Z,6.83
2022-11-24T13:07:21.097Z,6.84
2022-11-24T13:10:46.605Z,6.87
2022-11-24T13:13:15.169Z,6.90
2022-11-24T13:16:07.137Z,6.93
2022-11-24T13:19:08.616Z,6.95
2022-11-24T13:21:37.158Z,6.95
2022-11-24T13:24:07.420Z,6.95
2022-11-24T13:26:41.517Z,6.91
2022-11-24T13:29:29.319Z,6.89
2022-11-24T13:32:07.219Z,6.85
2022-11-24T13:34:42.896Z,6.72
2022-11-24T13:37:34.667Z,6.85
2022-11-24T13:40:13.760Z,6.86
2022-11-24T13:43:08.620Z,6.87
2022-11-24T13:45:40.831Z,6.87
2022-11-24T13:48:19.099Z,6.90
2022-11-24T13:50:51.301Z,6.92
2022-11-24T13:53:38.884Z,6.95
2022-11-24T13:56:13.789Z,6.98
2022-11-24T13:58:47.074Z,6.99
2022-11-24T14:01:24.118Z,7.01
2022-11-24T14:04:43.254Z,7.02
2022-11-24T14:07:15.342Z,7.05
2022-11-24T14:09:52.648Z,7.06
2022-11-24T14:12:26.067Z,7.08
2022-11-24T14:15:13.142Z,7.08
2022-11-24T14:17:41.545Z,7.04
2022-11-24T14:20:22.599Z,7.04
2022-11-24T14:22:52.103Z,7.03
2022-11-24T14:25:30.202Z,7.04
2022-11-24T14:28:00.866Z,7.01
2022-11-24T14:30:29.847Z,7.00
2022-11-24T14:33:00.807Z,7.00
2022-11-24T14:35:29.247Z,6.99
2022-11-24T14:37:58.653Z,6.96
2022-11-24T14:40:48.662Z,6.95
2022-11-24T14:43:26.024Z,6.94
2022-11-24T14:45:58.734Z,6.92
2022-11-24T14:48:30.864Z,6.90
2022-11-24T14:51:11.766Z,6.90
2022-11-24T14:53:45.261Z,6.90
2022-11-24T14:56:28.067Z,6.90
2022-11-24T14:58:58.180Z,6.89
2022-11-24T15:01:26.664Z,6.87
2022-11-24T15:04:32.509Z,6.86
2022-11-24T15:07:29.379Z,6.84
2022-11-24T15:10:00.937Z,6.79
2022-11-24T15:12:35.049Z,6.76
2022-11-24T15:15:15.397Z,6.74
2022-11-24T15:17:50.729Z,6.72
2022-11-24T15:20:42.059Z,6.69
2022-11-24T15:23:24.985Z,6.68
2022-11-24T15:25:55.402Z,6.66
2022-11-24T15:28:28.273Z,6.68
2022-11-24T15:31:01.402Z,6.69
2022-11-24T15:33:30.869Z,6.74
2022-11-24T15:36:00.302Z,6.72
2022-11-24T15:38:29.068Z,6.72
2022-11-24T15:41:00.328Z,6.72
2022-11-24T15:43:40.840Z,6.74
2022-11-24T15:46:10.789Z,6.75
2022-11-24T15:48:40.006Z,6.75
2022-11-24T15:51:14.321Z,6.76
2022-11-24T15:53:46.377Z,6.76
2022-11-24T15:56:29.404Z,6.75
2022-11-24T15:58:57.853Z,6.73
2022-11-24T16:01:32.105Z,6.70
2022-11-24T16:04:02.111Z,6.66
2022-11-24T16:06:30.707Z,6.65
2022-11-24T16:08:59.392Z,6.64
2022-11-24T16:11:28.310Z,6.62
2022-11-24T16:13:57.114Z,6.59
2022-11-24T16:16:26.145Z,6.58
2022-11-24T16:18:55.056Z,6.58
2022-11-24T16:21:24.432Z,6.57
2022-11-24T16:23:53.456Z,6.57
2022-11-24T16:26:22.878Z,6.58
2022-11-24T16:28:52.254Z,6.58
2022-11-24T16:31:21.100Z,6.54
2022-11-24T16:33:50.950Z,6.47
2022-11-24T16:36:20.876Z,6.46
2022-11-24T16:38:49.640Z,6.43
2022-11-24T16:41:18.155Z,6.40
2022-11-24T16:43:47.938Z,6.37
2022-11-24T16:46:21.017Z,6.39
2022-11-24T16:48:53.747Z,6.39
2022-11-24T16:51:31.376Z,6.39
2022-11-24T16:54:07.436Z,6.35
2022-11-24T16:56:38.255Z,6.31
2022-11-24T16:59:08.565Z,6.29
2022-11-24T17:01:41.111Z,6.29
2022-11-24T17:04:12.721Z,6.29
2022-11-24T17:06:43.510Z,6.26
2022-11-24T17:09:15.090Z,6.22
2022-11-24T17:11:46.271Z,6.20
2022-11-24T17:14:17.184Z,6.22
2022-11-24T17:16:47.881Z,6.22
2022-11-24T17:19:18.347Z,6.24
2022-11-24T17:21:49.323Z,6.25
2022-11-24T17:24:20.254Z,6.23
2022-11-24T17:26:52.526Z,6.22
2022-11-24T17:29:23.731Z,6.21
2022-11-24T17:31:54.243Z,6.19
2022-11-24T17:34:24.478Z,6.18
2022-11-24T17:36:55.474Z,6.15
2022-11-24T17:39:25.919Z,6.12
2022-11-24T17:41:55.418Z,6.12
2022-11-24T17:44:25.017Z,6.14
2022-11-24T17:46:55.134Z,6.15
2022-11-24T17:49:24.556Z,6.14
2022-11-24T17:51:55.805Z,6.13
2022-11-24T17:54:56.638Z,6.13
2022-11-24T17:57:16.900Z,6.12
2022-11-24T17:59:47.551Z,6.12
2022-11-24T18:02:16.631Z,6.12
2022-11-24T18:04:45.938Z,6.10
2022-11-24T18:07:14.851Z,6.10
2022-11-24T18:09:44.577Z,6.10
2022-11-24T18:12:16.414Z,6.10
2022-11-24T18:14:46.941Z,6.10
2022-11-24T18:17:16.138Z,6.12
2022-11-24T18:19:45.011Z,6.13
2022-11-24T18:22:14.121Z,6.13
2022-11-24T18:24:42.709Z,6.13
2022-11-24T18:27:12.696Z,6.12
2022-11-24T18:29:42.028Z,6.11
2022-11-24T18:32:11.667Z,6.10
2022-11-24T18:34:40.633Z,6.09
2022-11-24T18:37:13.929Z,6.02
2022-11-24T18:39:43.281Z,6.06
2022-11-24T18:42:17.178Z,6.05
2022-11-24T18:44:52.495Z,6.04
2022-11-24T18:47:23.307Z,6.03
2022-11-24T18:49:52.818Z,6.00
2022-11-24T18:52:23.031Z,5.98
2022-11-24T18:54:52.355Z,5.96
2022-11-24T18:57:21.809Z,5.95
2022-11-24T18:59:51.874Z,5.94
2022-11-24T19:02:21.233Z,5.93
2022-11-24T19:04:51.415Z,5.92
2022-11-24T19:07:21.375Z,5.91
2022-11-24T19:09:51.234Z,5.88
2022-11-24T19:12:20.905Z,5.86
2022-11-24T19:14:50.981Z,5.71
2022-11-24T19:17:21.683Z,5.82
2022-11-24T19:19:52.282Z,5.80
2022-11-24T19:22:22.421Z,5.79
2022-11-24T19:24:51.849Z,5.80
2022-11-24T19:27:22.390Z,5.80
2022-11-24T19:29:55.260Z,5.82
2022-11-24T19:32:24.699Z,5.83
2022-11-24T19:34:54.055Z,5.85
2022-11-24T19:37:23.887Z,5.88
2022-11-24T19:39:54.095Z,5.91
2022-11-24T19:42:23.602Z,5.93
2022-11-24T19:44:56.433Z,5.95
2022-11-24T19:47:28.094Z,5.95
2022-11-24T19:49:57.478Z,5.96
2022-11-24T19:52:30.645Z,5.95
2022-11-24T19:55:00.324Z,5.95
2022-11-24T19:57:29.426Z,5.94
2022-11-24T19:59:58.510Z,5.94
2022-11-24T20:02:30.144Z,5.95
2022-11-24T20:04:58.852Z,5.96
2022-11-24T20:07:28.547Z,5.97
2022-11-24T20:10:00.820Z,5.98
2022-11-24T20:12:35.371Z,5.94
2022-11-24T20:15:05.292Z,5.91
2022-11-24T20:17:34.897Z,5.89
2022-11-24T20:20:04.803Z,5.88
2022-11-24T20:22:35.296Z,5.88
2022-11-24T20:25:05.971Z,5.87
2022-11-24T20:27:36.498Z,5.87
2022-11-24T20:30:07.302Z,5.85
2022-11-24T20:32:37.372Z,5.84
2022-11-24T20:35:07.021Z,5.83
2022-11-24T20:37:35.744Z,5.81
2022-11-24T20:40:06.984Z,5.83
2022-11-24T20:42:37.723Z,5.86
2022-11-24T20:45:07.328Z,5.90
2022-11-24T20:47:37.243Z,5.92
2022-11-24T20:50:06.639Z,5.96
2022-11-24T20:52:35.889Z,5.98
2022-11-24T20:55:07.350Z,6.01
2022-11-24T20:57:36.958Z,6.01
2022-11-24T21:00:07.036Z,6.02
2022-11-24T21:02:36.288Z,6.02
2022-11-24T21:05:07.032Z,5.99
2022-11-24T21:07:36.167Z,5.98
2022-11-24T21:10:07.379Z,6.00
2022-11-24T21:12:36.598Z,6.02
2022-11-24T21:15:08.145Z,6.02
2022-11-24T21:17:40.427Z,6.01
2022-11-24T21:20:11.370Z,6.02
2022-11-24T21:22:41.177Z,6.05
2022-11-24T21:25:09.855Z,6.08
2022-11-24T21:27:38.845Z,6.10
2022-11-24T21:30:09.662Z,6.15
2022-11-24T21:32:38.475Z,6.17
2022-11-24T21:35:07.874Z,6.19
2022-11-24T21:37:36.691Z,6.21
2022-11-24T21:40:06.374Z,6.23
2022-11-24T21:42:35.073Z,6.20
2022-11-24T21:45:04.573Z,6.19
2022-11-24T21:47:34.174Z,6.18
2022-11-24T21:50:04.287Z,6.18
2022-11-24T21:52:33.477Z,6.19
2022-11-24T21:55:01.868Z,6.20
2022-11-24T21:57:30.752Z,6.20
2022-11-24T21:59:59.401Z,6.19
2022-11-24T22:02:28.037Z,6.18
2022-11-24T22:04:56.738Z,6.18
2022-11-24T22:07:25.133Z,6.19
2022-11-24T22:09:53.491Z,6.22
2022-11-24T22:12:21.713Z,6.25
2022-11-24T22:14:50.220Z,6.27
2022-11-24T22:17:18.509Z,6.29
2022-11-24T22:19:47.799Z,6.32
2022-11-24T22:22:16.395Z,6.34
2022-11-24T22:24:44.870Z,6.35
2022-11-24T22:27:16.440Z,6.37
2022-11-24T22:29:50.047Z,6.38
2022-11-24T22:32:22.591Z,6.43
2022-11-24T22:34:50.981Z,6.45
2022-11-24T22:37:19.369Z,6.46
2022-11-24T22:39:47.940Z,6.49
2022-11-24T22:42:17.138Z,6.50
2022-11-24T22:44:45.824Z,6.52
2022-11-24T22:47:15.228Z,6.52
2022-11-24T22:49:43.718Z,6.52
2022-11-24T22:52:14.999Z,6.51
2022-11-24T22:54:43.438Z,6.51
2022-11-24T22:57:13.974Z,6.50
2022-11-24T22:59:42.446Z,6.50
2022-11-24T23:02:10.930Z,6.51
2022-11-24T23:04:39.217Z,6.51
2022-11-24T23:07:07.678Z,6.51
2022-11-24T23:09:36.066Z,6.51
2022-11-24T23:12:05.163Z,6.53
2022-11-24T23:14:33.923Z,6.55
2022-11-24T23:17:02.633Z,6.58
2022-11-24T23:19:30.910Z,6.61
2022-11-24T23:21:59.502Z,6.64
2022-11-24T23:24:27.868Z,6.67
2022-11-24T23:26:56.141Z,6.70
2022-11-24T23:29:24.428Z,6.72
2022-11-24T23:31:52.896Z,6.72
2022-11-24T23:34:21.499Z,6.71
2022-11-24T23:36:49.878Z,6.69
2022-11-24T23:39:18.254Z,6.69
2022-11-24T23:41:46.631Z,6.69
2022-11-24T23:44:15.626Z,6.70
2022-11-24T23:46:43.803Z,6.69
2022-11-24T23:49:12.273Z,6.68
2022-11-24T23:51:42.298Z,6.69
2022-11-24T23:54:10.480Z,6.67
2022-11-24T23:56:38.590Z,6.65
2022-11-24T23:59:06.738Z,6.64
